map of BNK home
BNK - Airport
Location
City:  Ballina, New South Wales, Australia
ICAO:YBNA
IATA:BNK

Details
Type:Airport (Aerodrome, Airfield)
Latitude:2850'02"S (-28.833888)
Longitude:15333'45"E (153.562500)
Datum:WGS 1984
Elevation:7 ft (2 m)
Variation:11.53E (WMM2015v2 magnetic declination)
-0.00 annual change
Runways:1
Longest:6234 × 98 ft (1900 × 30 m), paved

Time
Time Zone:UTC+10 (DST+11)
Local Time:

Weather
METAR:YBNA 041400Z AUTO 07004KT 9999 // SCT027 SCT046 23/21 Q1013

Related Locations
Nearby:
Farthest:VDE: 11920 mi / 19184 km
Valverde [El Hierro], El Hierro Island, CN, ES

Find:

   beyond  
but within

Other Information
Maps:
NOTAMs:
Links:
Sources:

  
  • flag of Australia
  • flag of New South Wales
  

Sectional Chart

Flight Planning
at skyvector.com

Satellite Image

Google Maps Satellite view

 

Copyright © 2004-2019 Karl L. Swartz. All rights reserved.
The Great Circle Mapper name and logo are trademarks of the Great Circle Mapper.
All other trademarks mentioned herein belong to their respective owners.
Please see credits for attibutions and further copyright information.

  Follow gcmap on Facebook Follow gcmap on Twitter GCmap on LinkedIn

hCard Microformat

Geo Microformat